sensor_id;sensor_type;location;lat;lon;timestamp;temperature;humidity
1686;DHT22;840;47.980;7.830;2022-09-13T00:01:03;18.20;99.90
1686;DHT22;840;47.980;7.830;2022-09-13T00:03:31;18.20;99.90
1686;DHT22;840;47.980;7.830;2022-09-13T00:06:05;18.20;99.90
1686;DHT22;840;47.980;7.830;2022-09-13T00:08:32;18.20;99.90
1686;DHT22;840;47.980;7.830;2022-09-13T00:10:59;18.10;99.90
1686;DHT22;840;47.980;7.830;2022-09-13T00:13:25;18.10;99.90
1686;DHT22;840;47.980;7.830;2022-09-13T00:15:54;18.10;99.90
1686;DHT22;840;47.980;7.830;2022-09-13T00:18:21;18.20;99.90
1686;DHT22;840;47.980;7.830;2022-09-13T00:20:48;18.20;99.90
1686;DHT22;840;47.980;7.830;2022-09-13T00:23:15;18.20;99.90
1686;DHT22;840;47.980;7.830;2022-09-13T00:25:41;18.20;99.90
1686;DHT22;840;47.980;7.830;2022-09-13T00:28:08;18.20;99.90
1686;DHT22;840;47.980;7.830;2022-09-13T00:30:35;18.20;99.90
1686;DHT22;840;47.980;7.830;2022-09-13T00:33:03;18.20;99.90
1686;DHT22;840;47.980;7.830;2022-09-13T00:35:30;18.30;99.90
1686;DHT22;840;47.980;7.830;2022-09-13T00:37:59;18.30;99.90
1686;DHT22;840;47.980;7.830;2022-09-13T00:40:26;18.30;99.90
1686;DHT22;840;47.980;7.830;2022-09-13T00:42:54;18.20;99.90
1686;DHT22;840;47.980;7.830;2022-09-13T00:45:21;18.20;99.90
1686;DHT22;840;47.980;7.830;2022-09-13T00:47:52;18.20;99.90
1686;DHT22;840;47.980;7.830;2022-09-13T00:50:27;18.20;99.90
1686;DHT22;840;47.980;7.830;2022-09-13T00:52:59;18.10;99.90
1686;DHT22;840;47.980;7.830;2022-09-13T00:55:29;18.10;99.90
1686;DHT22;840;47.980;7.830;2022-09-13T00:58:03;18.10;99.90
1686;DHT22;840;47.980;7.830;2022-09-13T01:00:31;18.10;99.90
1686;DHT22;840;47.980;7.830;2022-09-13T01:03:01;18.00;99.90
1686;DHT22;840;47.980;7.830;2022-09-13T01:05:34;18.00;99.90
1686;DHT22;840;47.980;7.830;2022-09-13T01:08:03;17.90;99.90
1686;DHT22;840;47.980;7.830;2022-09-13T01:10:34;17.90;99.90
1686;DHT22;840;47.980;7.830;2022-09-13T01:13:07;17.90;99.90
1686;DHT22;840;47.980;7.830;2022-09-13T01:15:39;17.80;99.90
1686;DHT22;840;47.980;7.830;2022-09-13T01:18:07;17.80;99.90
1686;DHT22;840;47.980;7.830;2022-09-13T01:20:48;17.80;99.90
1686;DHT22;840;47.980;7.830;2022-09-13T01:23:47;17.70;99.90
1686;DHT22;840;47.980;7.830;2022-09-13T01:27:00;17.70;99.90
1686;DHT22;840;47.980;7.830;2022-09-13T01:30:06;17.60;99.90
1686;DHT22;840;47.980;7.830;2022-09-13T01:32:45;17.50;99.90
1686;DHT22;840;47.980;7.830;2022-09-13T01:35:24;17.50;99.90
1686;DHT22;840;47.980;7.830;2022-09-13T01:37:57;17.40;99.90
1686;DHT22;840;47.980;7.830;2022-09-13T01:40:40;17.40;99.90
1686;DHT22;840;47.980;7.830;2022-09-13T01:43:22;17.30;99.90
1686;DHT22;840;47.980;7.830;2022-09-13T01:45:56;17.30;99.90
1686;DHT22;840;47.980;7.830;2022-09-13T01:48:38;17.30;99.90
1686;DHT22;840;47.980;7.830;2022-09-13T01:51:10;17.20;99.90
1686;DHT22;840;47.980;7.830;2022-09-13T01:53:47;17.10;99.90
1686;DHT22;840;47.980;7.830;2022-09-13T01:56:19;17.10;99.90
1686;DHT22;840;47.980;7.830;2022-09-13T01:58:53;17.00;99.90
1686;DHT22;840;47.980;7.830;2022-09-13T02:01:23;17.00;99.90
1686;DHT22;840;47.980;7.830;2022-09-13T02:03:53;17.00;99.90
1686;DHT22;840;47.980;7.830;2022-09-13T02:06:23;17.00;99.90
1686;DHT22;840;47.980;7.830;2022-09-13T02:08:54;17.00;99.90
1686;DHT22;840;47.980;7.830;2022-09-13T02:11:23;17.00;99.90
1686;DHT22;840;47.980;7.830;2022-09-13T02:13:55;17.00;99.90
1686;DHT22;840;47.980;7.830;2022-09-13T02:16:27;17.00;99.90
1686;DHT22;840;47.980;7.830;2022-09-13T02:18:58;17.00;99.90
1686;DHT22;840;47.980;7.830;2022-09-13T02:21:30;17.00;99.90
1686;DHT22;840;47.980;7.830;2022-09-13T02:24:01;16.90;99.90
1686;DHT22;840;47.980;7.830;2022-09-13T02:26:30;16.90;99.90
1686;DHT22;840;47.980;7.830;2022-09-13T02:29:00;16.80;99.90
1686;DHT22;840;47.980;7.830;2022-09-13T02:31:33;16.80;99.90
1686;DHT22;840;47.980;7.830;2022-09-13T02:34:04;16.80;99.90
1686;DHT22;840;47.980;7.830;2022-09-13T02:36:37;16.70;99.90
1686;DHT22;840;47.980;7.830;2022-09-13T02:39:10;16.70;99.90
1686;DHT22;840;47.980;7.830;2022-09-13T02:41:42;16.70;99.90
1686;DHT22;840;47.980;7.830;2022-09-13T02:44:15;16.60;99.90
1686;DHT22;840;47.980;7.830;2022-09-13T02:46:59;16.60;99.90
1686;DHT22;840;47.980;7.830;2022-09-13T02:49:35;16.60;99.90
1686;DHT22;840;47.980;7.830;2022-09-13T02:52:11;16.50;99.90
1686;DHT22;840;47.980;7.830;2022-09-13T02:54:51;16.50;99.90
1686;DHT22;840;47.980;7.830;2022-09-13T02:57:26;16.50;99.90
1686;DHT22;840;47.980;7.830;2022-09-13T02:59:56;16.50;99.90
1686;DHT22;840;47.980;7.830;2022-09-13T03:02:28;16.50;99.90
1686;DHT22;840;47.980;7.830;2022-09-13T03:04:57;16.50;99.90
1686;DHT22;840;47.980;7.830;2022-09-13T03:07:25;16.60;99.90
1686;DHT22;840;47.980;7.830;2022-09-13T03:09:55;16.60;99.90
1686;DHT22;840;47.980;7.830;2022-09-13T03:12:38;16.60;99.90
1686;DHT22;840;47.980;7.830;2022-09-13T03:15:15;16.60;99.90
1686;DHT22;840;47.980;7.830;2022-09-13T03:17:53;16.60;99.90
1686;DHT22;840;47.980;7.830;2022-09-13T03:20:29;16.70;99.90
1686;DHT22;840;47.980;7.830;2022-09-13T03:23:21;16.70;99.90
1686;DHT22;840;47.980;7.830;2022-09-13T03:26:03;16.70;99.90
1686;DHT22;840;47.980;7.830;2022-09-13T03:28:38;16.70;99.90
1686;DHT22;840;47.980;7.830;2022-09-13T03:31:11;16.70;99.90
1686;DHT22;840;47.980;7.830;2022-09-13T03:33:47;16.70;99.90
1686;DHT22;840;47.980;7.830;2022-09-13T03:36:19;16.70;99.90
1686;DHT22;840;47.980;7.830;2022-09-13T03:38:55;16.70;99.90
1686;DHT22;840;47.980;7.830;2022-09-13T03:41:26;16.70;99.90
1686;DHT22;840;47.980;7.830;2022-09-13T03:43:57;16.60;99.90
1686;DHT22;840;47.980;7.830;2022-09-13T03:46:28;16.60;99.90
1686;DHT22;840;47.980;7.830;2022-09-13T03:49:00;16.60;99.90
1686;DHT22;840;47.980;7.830;2022-09-13T03:51:28;16.60;99.90
1686;DHT22;840;47.980;7.830;2022-09-13T03:54:00;16.60;99.90
1686;DHT22;840;47.980;7.830;2022-09-13T03:56:28;16.60;99.90
1686;DHT22;840;47.980;7.830;2022-09-13T03:58:54;16.50;99.90
1686;DHT22;840;47.980;7.830;2022-09-13T04:01:23;16.50;99.90
1686;DHT22;840;47.980;7.830;2022-09-13T04:03:50;16.50;99.90
1686;DHT22;840;47.980;7.830;2022-09-13T04:06:18;16.50;99.90
1686;DHT22;840;47.980;7.830;2022-09-13T04:08:45;16.50;99.90
1686;DHT22;840;47.980;7.830;2022-09-13T04:11:12;16.40;99.90
1686;DHT22;840;47.980;7.830;2022-09-13T04:13:39;16.40;99.90
1686;DHT22;840;47.980;7.830;2022-09-13T04:16:07;16.40;99.90
1686;DHT22;840;47.980;7.830;2022-09-13T04:18:34;16.40;99.90
1686;DHT22;840;47.980;7.830;2022-09-13T04:21:02;16.40;99.90
1686;DHT22;840;47.980;7.830;2022-09-13T04:23:31;16.40;99.90
1686;DHT22;840;47.980;7.830;2022-09-13T04:26:01;16.40;99.90
1686;DHT22;840;47.980;7.830;2022-09-13T04:28:28;16.30;99.90
1686;DHT22;840;47.980;7.830;2022-09-13T04:30:55;16.40;99.90
1686;DHT22;840;47.980;7.830;2022-09-13T04:33:22;16.30;99.90
1686;DHT22;840;47.980;7.830;2022-09-13T04:35:53;16.30;99.90
1686;DHT22;840;47.980;7.830;2022-09-13T04:38:20;16.20;99.90
1686;DHT22;840;47.980;7.830;2022-09-13T04:40:52;16.20;99.90
1686;DHT22;840;47.980;7.830;2022-09-13T04:43:19;16.20;99.90
1686;DHT22;840;47.980;7.830;2022-09-13T04:45:46;16.10;99.90
1686;DHT22;840;47.980;7.830;2022-09-13T04:48:13;16.10;99.90
1686;DHT22;840;47.980;7.830;2022-09-13T04:50:40;16.10;99.90
1686;DHT22;840;47.980;7.830;2022-09-13T04:53:07;16.10;99.90
1686;DHT22;840;47.980;7.830;2022-09-13T04:55:34;16.10;99.90
1686;DHT22;840;47.980;7.830;2022-09-13T04:58:02;16.10;99.90
1686;DHT22;840;47.980;7.830;2022-09-13T05:00:29;16.10;99.90
1686;DHT22;840;47.980;7.830;2022-09-13T05:02:56;16.10;99.90
1686;DHT22;840;47.980;7.830;2022-09-13T05:05:24;16.10;99.90
1686;DHT22;840;47.980;7.830;2022-09-13T05:07:53;16.10;99.90
1686;DHT22;840;47.980;7.830;2022-09-13T05:10:20;16.10;99.90
1686;DHT22;840;47.980;7.830;2022-09-13T05:12:47;16.10;99.90
1686;DHT22;840;47.980;7.830;2022-09-13T05:15:15;16.10;99.90
1686;DHT22;840;47.980;7.830;2022-09-13T05:17:42;16.10;99.90
1686;DHT22;840;47.980;7.830;2022-09-13T05:20:09;16.00;99.90
1686;DHT22;840;47.980;7.830;2022-09-13T05:22:37;16.00;99.90
1686;DHT22;840;47.980;7.830;2022-09-13T05:25:05;16.00;99.90
1686;DHT22;840;47.980;7.830;2022-09-13T05:27:31;15.90;99.90
1686;DHT22;840;47.980;7.830;2022-09-13T05:29:59;16.00;99.90
1686;DHT22;840;47.980;7.830;2022-09-13T05:32:27;16.00;99.90
1686;DHT22;840;47.980;7.830;2022-09-13T05:34:54;16.00;99.90
1686;DHT22;840;47.980;7.830;2022-09-13T05:37:20;16.00;99.90
1686;DHT22;840;47.980;7.830;2022-09-13T05:39:47;16.00;99.90
1686;DHT22;840;47.980;7.830;2022-09-13T05:42:14;16.00;99.90
1686;DHT22;840;47.980;7.830;2022-09-13T05:44:41;16.10;99.90
1686;DHT22;840;47.980;7.830;2022-09-13T05:47:08;16.00;99.90
1686;DHT22;840;47.980;7.830;2022-09-13T05:49:36;16.10;99.90
1686;DHT22;840;47.980;7.830;2022-09-13T05:52:03;16.10;99.90
1686;DHT22;840;47.980;7.830;2022-09-13T05:54:30;16.10;99.90
1686;DHT22;840;47.980;7.830;2022-09-13T05:56:58;16.10;99.90
1686;DHT22;840;47.980;7.830;2022-09-13T05:59:25;16.20;99.90
1686;DHT22;840;47.980;7.830;2022-09-13T06:01:52;16.20;99.90
1686;DHT22;840;47.980;7.830;2022-09-13T06:04:19;16.20;99.90
1686;DHT22;840;47.980;7.830;2022-09-13T06:06:48;16.20;99.90
1686;DHT22;840;47.980;7.830;2022-09-13T06:09:15;16.20;99.90
1686;DHT22;840;47.980;7.830;2022-09-13T06:11:43;16.20;99.90
1686;DHT22;840;47.980;7.830;2022-09-13T06:14:09;16.20;99.90
1686;DHT22;840;47.980;7.830;2022-09-13T06:16:37;16.20;99.90
1686;DHT22;840;47.980;7.830;2022-09-13T06:19:03;16.30;99.90
1686;DHT22;840;47.980;7.830;2022-09-13T06:21:31;16.40;99.90
1686;DHT22;840;47.980;7.830;2022-09-13T06:23:59;16.50;99.90
1686;DHT22;840;47.980;7.830;2022-09-13T06:26:27;16.60;99.90
1686;DHT22;840;47.980;7.830;2022-09-13T06:28:55;16.80;99.90
1686;DHT22;840;47.980;7.830;2022-09-13T06:31:24;16.90;99.90
1686;DHT22;840;47.980;7.830;2022-09-13T06:33:55;17.10;99.90
1686;DHT22;840;47.980;7.830;2022-09-13T06:36:23;17.20;99.90
1686;DHT22;840;47.980;7.830;2022-09-13T06:38:50;17.30;99.90
1686;DHT22;840;47.980;7.830;2022-09-13T06:41:19;17.50;99.90
1686;DHT22;840;47.980;7.830;2022-09-13T06:43:51;17.60;99.90
1686;DHT22;840;47.980;7.830;2022-09-13T06:46:19;17.70;99.90
1686;DHT22;840;47.980;7.830;2022-09-13T06:48:46;17.70;99.90
1686;DHT22;840;47.980;7.830;2022-09-13T06:51:15;17.80;99.90
1686;DHT22;840;47.980;7.830;2022-09-13T06:53:43;17.90;99.90
1686;DHT22;840;47.980;7.830;2022-09-13T06:56:12;18.00;99.90
1686;DHT22;840;47.980;7.830;2022-09-13T06:58:42;18.10;99.90
1686;DHT22;840;47.980;7.830;2022-09-13T07:01:12;18.20;99.90
1686;DHT22;840;47.980;7.830;2022-09-13T07:03:41;18.30;99.90
1686;DHT22;840;47.980;7.830;2022-09-13T07:06:09;18.40;99.90
1686;DHT22;840;47.980;7.830;2022-09-13T07:08:37;18.50;99.90
1686;DHT22;840;47.980;7.830;2022-09-13T07:11:04;18.50;99.90
1686;DHT22;840;47.980;7.830;2022-09-13T07:13:31;18.60;99.90
1686;DHT22;840;47.980;7.830;2022-09-13T07:16:02;18.70;99.90
1686;DHT22;840;47.980;7.830;2022-09-13T07:18:29;18.70;99.90
1686;DHT22;840;47.980;7.830;2022-09-13T07:20:58;18.80;99.90
1686;DHT22;840;47.980;7.830;2022-09-13T07:23:26;18.90;99.90
1686;DHT22;840;47.980;7.830;2022-09-13T07:25:54;19.00;99.90
1686;DHT22;840;47.980;7.830;2022-09-13T07:28:26;19.10;99.90
1686;DHT22;840;47.980;7.830;2022-09-13T07:30:53;19.20;99.90
1686;DHT22;840;47.980;7.830;2022-09-13T07:33:22;19.20;99.90
1686;DHT22;840;47.980;7.830;2022-09-13T07:35:54;19.30;99.90
1686;DHT22;840;47.980;7.830;2022-09-13T07:38:21;19.30;99.90
1686;DHT22;840;47.980;7.830;2022-09-13T07:40:52;19.30;99.90
1686;DHT22;840;47.980;7.830;2022-09-13T07:43:19;19.30;99.90
1686;DHT22;840;47.980;7.830;2022-09-13T07:45:46;19.40;99.90
1686;DHT22;840;47.980;7.830;2022-09-13T07:48:13;19.40;99.90
1686;DHT22;840;47.980;7.830;2022-09-13T07:50:41;19.40;99.90
1686;DHT22;840;47.980;7.830;2022-09-13T07:53:08;19.40;99.90
1686;DHT22;840;47.980;7.830;2022-09-13T07:55:34;19.40;99.90
1686;DHT22;840;47.980;7.830;2022-09-13T07:58:01;19.50;99.90
1686;DHT22;840;47.980;7.830;2022-09-13T08:00:29;19.50;99.90
1686;DHT22;840;47.980;7.830;2022-09-13T08:02:56;19.50;99.90
1686;DHT22;840;47.980;7.830;2022-09-13T08:05:23;19.60;99.90
1686;DHT22;840;47.980;7.830;2022-09-13T08:07:51;19.60;99.90
1686;DHT22;840;47.980;7.830;2022-09-13T08:10:17;19.70;99.90
1686;DHT22;840;47.980;7.830;2022-09-13T08:12:44;19.80;99.90
1686;DHT22;840;47.980;7.830;2022-09-13T08:15:11;19.80;99.90
1686;DHT22;840;47.980;7.830;2022-09-13T08:17:38;19.90;99.90
1686;DHT22;840;47.980;7.830;2022-09-13T08:20:05;19.90;99.90
1686;DHT22;840;47.980;7.830;2022-09-13T08:22:35;20.00;99.90
1686;DHT22;840;47.980;7.830;2022-09-13T08:25:04;20.10;99.90
1686;DHT22;840;47.980;7.830;2022-09-13T08:27:31;20.10;99.90
1686;DHT22;840;47.980;7.830;2022-09-13T08:29:58;20.20;99.90
1686;DHT22;840;47.980;7.830;2022-09-13T08:32:25;20.30;99.90
1686;DHT22;840;47.980;7.830;2022-09-13T08:34:52;20.30;99.90
1686;DHT22;840;47.980;7.830;2022-09-13T08:37:18;20.40;99.90
1686;DHT22;840;47.980;7.830;2022-09-13T08:39:45;20.40;99.90
1686;DHT22;840;47.980;7.830;2022-09-13T08:42:30;20.50;99.90
1686;DHT22;840;47.980;7.830;2022-09-13T08:45:06;20.60;99.90
1686;DHT22;840;47.980;7.830;2022-09-13T08:47:41;20.70;99.90
1686;DHT22;840;47.980;7.830;2022-09-13T08:50:12;20.80;99.90
1686;DHT22;840;47.980;7.830;2022-09-13T08:52:47;20.90;99.90
1686;DHT22;840;47.980;7.830;2022-09-13T08:55:24;21.00;99.90
1686;DHT22;840;47.980;7.830;2022-09-13T08:57:58;21.10;99.90
1686;DHT22;840;47.980;7.830;2022-09-13T09:00:31;21.20;99.90
1686;DHT22;840;47.980;7.830;2022-09-13T09:03:14;21.30;99.90
1686;DHT22;840;47.980;7.830;2022-09-13T09:05:45;21.30;99.90
1686;DHT22;840;47.980;7.830;2022-09-13T09:08:26;21.30;99.90
1686;DHT22;840;47.980;7.830;2022-09-13T09:10:56;21.40;99.90
1686;DHT22;840;47.980;7.830;2022-09-13T09:13:29;21.50;99.90
1686;DHT22;840;47.980;7.830;2022-09-13T09:16:00;21.60;99.90
1686;DHT22;840;47.980;7.830;2022-09-13T09:18:31;21.70;99.90
1686;DHT22;840;47.980;7.830;2022-09-13T09:21:00;21.80;99.90
1686;DHT22;840;47.980;7.830;2022-09-13T09:23:30;21.80;99.90
1686;DHT22;840;47.980;7.830;2022-09-13T09:26:13;21.90;99.90
1686;DHT22;840;47.980;7.830;2022-09-13T09:28:42;21.90;99.90
1686;DHT22;840;47.980;7.830;2022-09-13T09:31:13;22.00;99.90
1686;DHT22;840;47.980;7.830;2022-09-13T09:33:59;22.00;99.90
1686;DHT22;840;47.980;7.830;2022-09-13T09:36:34;22.10;99.90
1686;DHT22;840;47.980;7.830;2022-09-13T09:39:04;22.20;99.90
1686;DHT22;840;47.980;7.830;2022-09-13T09:41:32;22.20;99.90
1686;DHT22;840;47.980;7.830;2022-09-13T09:44:09;22.20;99.90
1686;DHT22;840;47.980;7.830;2022-09-13T09:46:40;22.30;99.90
1686;DHT22;840;47.980;7.830;2022-09-13T09:49:14;22.30;99.90
1686;DHT22;840;47.980;7.830;2022-09-13T09:51:57;22.40;99.90
1686;DHT22;840;47.980;7.830;2022-09-13T09:54:26;22.50;99.90
1686;DHT22;840;47.980;7.830;2022-09-13T09:56:54;22.50;99.90
1686;DHT22;840;47.980;7.830;2022-09-13T09:59:33;22.60;99.90
1686;DHT22;840;47.980;7.830;2022-09-13T10:02:12;22.60;99.90
1686;DHT22;840;47.980;7.830;2022-09-13T10:04:40;22.70;99.90
1686;DHT22;840;47.980;7.830;2022-09-13T10:07:10;22.80;99.90
1686;DHT22;840;47.980;7.830;2022-09-13T10:10:04;22.90;99.90
1686;DHT22;840;47.980;7.830;2022-09-13T10:12:34;23.00;99.90
1686;DHT22;840;47.980;7.830;2022-09-13T10:15:12;23.10;99.90
1686;DHT22;840;47.980;7.830;2022-09-13T10:17:40;23.30;99.90
1686;DHT22;840;47.980;7.830;2022-09-13T10:20:19;23.30;99.90
1686;DHT22;840;47.980;7.830;2022-09-13T10:23:09;23.40;99.90
1686;DHT22;840;47.980;7.830;2022-09-13T10:25:37;23.50;99.90
1686;DHT22;840;47.980;7.830;2022-09-13T10:28:11;23.60;99.90
1686;DHT22;840;47.980;7.830;2022-09-13T10:30:45;23.60;99.90
1686;DHT22;840;47.980;7.830;2022-09-13T10:33:24;23.70;99.90
1686;DHT22;840;47.980;7.830;2022-09-13T10:35:53;23.80;99.90
1686;DHT22;840;47.980;7.830;2022-09-13T10:38:27;23.90;99.90
1686;DHT22;840;47.980;7.830;2022-09-13T10:40:55;24.00;99.90
1686;DHT22;840;47.980;7.830;2022-09-13T10:43:23;24.10;99.90
1686;DHT22;840;47.980;7.830;2022-09-13T10:45:55;24.10;99.90
1686;DHT22;840;47.980;7.830;2022-09-13T10:48:22;24.20;99.90
1686;DHT22;840;47.980;7.830;2022-09-13T10:51:04;24.30;99.90
1686;DHT22;840;47.980;7.830;2022-09-13T10:53:36;24.40;99.90
1686;DHT22;840;47.980;7.830;2022-09-13T10:56:04;24.50;99.90
1686;DHT22;840;47.980;7.830;2022-09-13T10:58:31;24.60;99.90
1686;DHT22;840;47.980;7.830;2022-09-13T11:06:49;24.80;99.90
1686;DHT22;840;47.980;7.830;2022-09-13T11:09:20;24.90;99.90
1686;DHT22;840;47.980;7.830;2022-09-13T11:11:55;25.00;99.90
1686;DHT22;840;47.980;7.830;2022-09-13T11:14:41;25.10;99.90
1686;DHT22;840;47.980;7.830;2022-09-13T11:17:20;25.30;99.90
1686;DHT22;840;47.980;7.830;2022-09-13T11:20:11;25.50;99.90
1686;DHT22;840;47.980;7.830;2022-09-13T11:23:07;25.80;99.90
1686;DHT22;840;47.980;7.830;2022-09-13T11:25:53;26.00;99.90
1686;DHT22;840;47.980;7.830;2022-09-13T11:28:27;26.10;99.90
1686;DHT22;840;47.980;7.830;2022-09-13T11:31:11;26.30;99.90
1686;DHT22;840;47.980;7.830;2022-09-13T11:33:52;26.50;99.90
1686;DHT22;840;47.980;7.830;2022-09-13T11:36:38;26.70;99.90
1686;DHT22;840;47.980;7.830;2022-09-13T11:39:15;26.90;99.90
1686;DHT22;840;47.980;7.830;2022-09-13T11:41:50;27.00;99.90
1686;DHT22;840;47.980;7.830;2022-09-13T11:44:44;27.10;99.90
1686;DHT22;840;47.980;7.830;2022-09-13T11:47:19;27.20;99.90
1686;DHT22;840;47.980;7.830;2022-09-13T11:50:00;27.30;99.90
1686;DHT22;840;47.980;7.830;2022-09-13T11:52:36;27.30;99.90
1686;DHT22;840;47.980;7.830;2022-09-13T11:55:16;27.40;99.90
1686;DHT22;840;47.980;7.830;2022-09-13T11:57:47;27.40;99.90
1686;DHT22;840;47.980;7.830;2022-09-13T12:00:20;27.50;99.90
1686;DHT22;840;47.980;7.830;2022-09-13T12:02:54;27.50;99.90
1686;DHT22;840;47.980;7.830;2022-09-13T12:05:26;27.60;99.90
1686;DHT22;840;47.980;7.830;2022-09-13T12:07:56;27.60;99.90
1686;DHT22;840;47.980;7.830;2022-09-13T12:10:28;27.70;99.90
1686;DHT22;840;47.980;7.830;2022-09-13T12:12:57;27.80;99.60
1686;DHT22;840;47.980;7.830;2022-09-13T12:15:32;27.80;99.90
1686;DHT22;840;47.980;7.830;2022-09-13T12:18:04;27.90;99.40
1686;DHT22;840;47.980;7.830;2022-09-13T12:20:37;28.00;98.30
1686;DHT22;840;47.980;7.830;2022-09-13T12:23:10;28.00;98.60
1686;DHT22;840;47.980;7.830;2022-09-13T12:25:43;28.10;98.40
1686;DHT22;840;47.980;7.830;2022-09-13T12:28:16;28.10;98.00
1686;DHT22;840;47.980;7.830;2022-09-13T12:30:47;28.10;97.40
1686;DHT22;840;47.980;7.830;2022-09-13T12:33:16;28.10;97.20
1686;DHT22;840;47.980;7.830;2022-09-13T12:35:52;28.20;98.30
1686;DHT22;840;47.980;7.830;2022-09-13T12:39:01;28.20;98.50
1686;DHT22;840;47.980;7.830;2022-09-13T12:41:43;28.30;98.80
1686;DHT22;840;47.980;7.830;2022-09-13T12:44:34;28.40;99.50
1686;DHT22;840;47.980;7.830;2022-09-13T12:50:25;28.70;97.90
1686;DHT22;840;47.980;7.830;2022-09-13T12:53:08;28.80;96.90
1686;DHT22;840;47.980;7.830;2022-09-13T12:55:59;28.90;97.10
1686;DHT22;840;47.980;7.830;2022-09-13T12:58:46;28.80;97.10
1686;DHT22;840;47.980;7.830;2022-09-13T13:01:19;28.80;98.40
1686;DHT22;840;47.980;7.830;2022-09-13T13:03:50;28.70;98.60
1686;DHT22;840;47.980;7.830;2022-09-13T13:06:31;28.60;98.60
1686;DHT22;840;47.980;7.830;2022-09-13T13:09:03;28.60;99.00
1686;DHT22;840;47.980;7.830;2022-09-13T13:11:42;28.70;98.40
1686;DHT22;840;47.980;7.830;2022-09-13T13:14:41;28.80;97.90
1686;DHT22;840;47.980;7.830;2022-09-13T13:17:41;28.80;97.70
1686;DHT22;840;47.980;7.830;2022-09-13T13:23:24;28.90;97.60
1686;DHT22;840;47.980;7.830;2022-09-13T13:26:11;29.10;96.80
1686;DHT22;840;47.980;7.830;2022-09-13T13:29:04;29.10;96.40
1686;DHT22;840;47.980;7.830;2022-09-13T13:31:39;29.00;96.00
1686;DHT22;840;47.980;7.830;2022-09-13T13:34:32;29.00;96.20
1686;DHT22;840;47.980;7.830;2022-09-13T13:37:03;29.10;96.50
1686;DHT22;840;47.980;7.830;2022-09-13T13:39:40;29.20;95.90
1686;DHT22;840;47.980;7.830;2022-09-13T13:42:21;29.40;95.90
1686;DHT22;840;47.980;7.830;2022-09-13T13:45:19;29.50;94.80
1686;DHT22;840;47.980;7.830;2022-09-13T13:48:11;29.70;95.40
1686;DHT22;840;47.980;7.830;2022-09-13T13:51:14;29.80;94.40
1686;DHT22;840;47.980;7.830;2022-09-13T13:53:43;30.00;95.10
1686;DHT22;840;47.980;7.830;2022-09-13T13:56:20;30.00;94.60
1686;DHT22;840;47.980;7.830;2022-09-13T13:58:52;30.10;95.20
1686;DHT22;840;47.980;7.830;2022-09-13T14:01:24;30.10;94.80
1686;DHT22;840;47.980;7.830;2022-09-13T14:07:37;30.00;97.10
1686;DHT22;840;47.980;7.830;2022-09-13T14:10:12;29.90;97.40
1686;DHT22;840;47.980;7.830;2022-09-13T14:12:53;29.70;94.80
1686;DHT22;840;47.980;7.830;2022-09-13T14:15:33;29.60;94.80
1686;DHT22;840;47.980;7.830;2022-09-13T14:21:22;29.50;95.40
1686;DHT22;840;47.980;7.830;2022-09-13T14:23:50;29.50;94.60
1686;DHT22;840;47.980;7.830;2022-09-13T14:26:17;29.40;94.60
1686;DHT22;840;47.980;7.830;2022-09-13T14:28:44;29.40;95.50
1686;DHT22;840;47.980;7.830;2022-09-13T14:31:18;29.40;94.30
1686;DHT22;840;47.980;7.830;2022-09-13T14:33:45;29.40;94.00
1686;DHT22;840;47.980;7.830;2022-09-13T14:36:17;29.40;94.70
1686;DHT22;840;47.980;7.830;2022-09-13T14:39:08;29.30;94.90
1686;DHT22;840;47.980;7.830;2022-09-13T14:41:36;29.20;93.90
1686;DHT22;840;47.980;7.830;2022-09-13T14:44:14;29.20;94.10
1686;DHT22;840;47.980;7.830;2022-09-13T14:46:44;29.10;94.70
1686;DHT22;840;47.980;7.830;2022-09-13T14:49:17;29.10;95.50
1686;DHT22;840;47.980;7.830;2022-09-13T14:51:49;29.20;96.10
1686;DHT22;840;47.980;7.830;2022-09-13T14:54:25;29.20;95.10
1686;DHT22;840;47.980;7.830;2022-09-13T14:56:56;29.20;95.60
1686;DHT22;840;47.980;7.830;2022-09-13T14:59:26;29.20;96.20
1686;DHT22;840;47.980;7.830;2022-09-13T15:01:57;29.20;97.40
1686;DHT22;840;47.980;7.830;2022-09-13T15:04:24;29.10;96.70
1686;DHT22;840;47.980;7.830;2022-09-13T15:07:05;29.10;97.00
1686;DHT22;840;47.980;7.830;2022-09-13T15:09:33;29.00;96.90
1686;DHT22;840;47.980;7.830;2022-09-13T15:12:02;29.00;97.70
1686;DHT22;840;47.980;7.830;2022-09-13T15:14:30;29.00;97.20
1686;DHT22;840;47.980;7.830;2022-09-13T15:17:06;28.90;97.60
1686;DHT22;840;47.980;7.830;2022-09-13T15:19:39;28.80;97.20
1686;DHT22;840;47.980;7.830;2022-09-13T15:22:19;28.70;97.60
1686;DHT22;840;47.980;7.830;2022-09-13T15:24:49;28.60;98.00
1686;DHT22;840;47.980;7.830;2022-09-13T15:27:19;28.60;98.70
1686;DHT22;840;47.980;7.830;2022-09-13T15:29:51;28.60;99.70
1686;DHT22;840;47.980;7.830;2022-09-13T15:32:28;28.60;99.80
1686;DHT22;840;47.980;7.830;2022-09-13T15:34:57;28.60;99.60
1686;DHT22;840;47.980;7.830;2022-09-13T15:37:33;28.60;99.80
1686;DHT22;840;47.980;7.830;2022-09-13T15:40:16;28.70;99.90
1686;DHT22;840;47.980;7.830;2022-09-13T15:42:45;28.60;98.80
1686;DHT22;840;47.980;7.830;2022-09-13T15:45:13;28.70;99.90
1686;DHT22;840;47.980;7.830;2022-09-13T15:47:44;28.60;98.40
1686;DHT22;840;47.980;7.830;2022-09-13T15:50:18;28.70;99.20
1686;DHT22;840;47.980;7.830;2022-09-13T15:52:45;28.90;97.70
1686;DHT22;840;47.980;7.830;2022-09-13T15:55:14;29.10;96.90
1686;DHT22;840;47.980;7.830;2022-09-13T15:57:43;29.20;96.90
1686;DHT22;840;47.980;7.830;2022-09-13T16:00:14;29.40;97.50
1686;DHT22;840;47.980;7.830;2022-09-13T16:02:43;29.50;97.40
1686;DHT22;840;47.980;7.830;2022-09-13T16:05:10;29.50;97.40
1686;DHT22;840;47.980;7.830;2022-09-13T16:07:38;29.50;97.60
1686;DHT22;840;47.980;7.830;2022-09-13T16:10:10;29.50;98.00
1686;DHT22;840;47.980;7.830;2022-09-13T16:12:41;29.40;98.40
1686;DHT22;840;47.980;7.830;2022-09-13T16:15:09;29.30;99.00
1686;DHT22;840;47.980;7.830;2022-09-13T16:17:37;29.20;99.90
1686;DHT22;840;47.980;7.830;2022-09-13T16:20:10;29.10;99.90
1686;DHT22;840;47.980;7.830;2022-09-13T16:22:37;29.00;99.90
1686;DHT22;840;47.980;7.830;2022-09-13T16:25:05;28.80;99.90
1686;DHT22;840;47.980;7.830;2022-09-13T16:27:32;28.70;99.90
1686;DHT22;840;47.980;7.830;2022-09-13T16:29:59;28.60;99.90
1686;DHT22;840;47.980;7.830;2022-09-13T16:32:25;28.60;99.90
1686;DHT22;840;47.980;7.830;2022-09-13T16:34:52;28.50;99.90
1686;DHT22;840;47.980;7.830;2022-09-13T16:37:20;28.40;99.90
1686;DHT22;840;47.980;7.830;2022-09-13T16:39:48;28.30;99.90
1686;DHT22;840;47.980;7.830;2022-09-13T16:42:15;28.20;99.90
1686;DHT22;840;47.980;7.830;2022-09-13T16:44:42;28.10;99.90
1686;DHT22;840;47.980;7.830;2022-09-13T16:47:09;28.00;99.90
1686;DHT22;840;47.980;7.830;2022-09-13T16:49:36;27.90;99.90
1686;DHT22;840;47.980;7.830;2022-09-13T16:52:03;27.90;99.90
1686;DHT22;840;47.980;7.830;2022-09-13T16:54:31;27.80;99.90
1686;DHT22;840;47.980;7.830;2022-09-13T16:57:06;27.70;99.90
1686;DHT22;840;47.980;7.830;2022-09-13T16:59:35;27.70;99.90
1686;DHT22;840;47.980;7.830;2022-09-13T17:02:05;27.60;99.90
1686;DHT22;840;47.980;7.830;2022-09-13T17:04:32;27.50;99.90
1686;DHT22;840;47.980;7.830;2022-09-13T17:06:59;27.40;99.90
1686;DHT22;840;47.980;7.830;2022-09-13T17:09:27;27.30;99.90